KIKV

Ankeny Regional Airport

Ankeny, Iowa, USA
METAR KIKV 231215Z AUTO 00000KT 10SM CLR 00/M02 A3035 RMK AO2
Observed Flight Rules
Oct-23 @ 12:15 UTC (10 minutes ago) Visual Flight Rules
Visibility Clouds
10 miles
  • Clear skies
Temperatures Readings
Current 0°C / 32°F
Dewpoint -2°C / 28°F
Humidity 87%
Altimeter 30.35" Hg
Pressure 1028 hPa
Elevation 275
METAR KIKV 231215Z AUTO 00000KT 10SM CLR 00/M02 A3035 RMK AO2
Observed Flight Rules
Oct-23 @ 12:15 UTC
(10 minutes ago)
VFR
Clouds
  • Clear skies
Temperature Dewpoint
0°C / 32°F -2°C / 28°F
Humidity Altimeter Pressure
87% 30.35" Hg 1028 hPa